Time;durP1;ratioP1;P1;durP2;ratioP2;P2;SDS_P1;SDS_P2;PMS_P1;PMS_P2;Temp;Humidity;BMP_temperature;BMP_pressure;BME280_temperature;BME280_humidity;BME280_pressure;Samples;Min_cycle;Max_cycle;Signal;HPM_P1;HPM_P2
2022/05/29 00:01:06;;;;;;;;;;;;;;;9.97;64.94;98535.88;5032522;28;20041;-77
2022/05/29 00:03:32;;;;;;;2.75;0.70;;;;;;;9.85;65.73;98530.91;5032798;28;19917;-78
2022/05/29 00:05:57;;;;;;;;;;;;;;;9.92;65.87;98529.91;5034077;28;20103;-77
2022/05/29 00:08:26;;;;;;;1.67;0.77;;;;;;;9.93;66.93;98524.69;5048546;28;19924;-80
2022/05/29 00:10:51;;;;;;;2.65;1.02;;;;;;;9.91;66.46;98518.72;5033459;28;20030;-80
2022/05/29 00:13:17;;;;;;;;;;;;;;;10.00;65.72;98527.19;5032452;28;20146;-79
2022/05/29 00:15:43;;;;;;;2.40;0.98;;;;;;;9.91;66.78;98523.03;5033431;28;20427;-79
2022/05/29 00:18:08;;;;;;;;;;;;;;;10.02;67.19;98530.59;4999887;28;20041;-79
2022/05/29 00:20:34;;;;;;;3.47;1.23;;;;;;;9.87;66.78;98521.38;5032978;28;20003;-79
2022/05/29 00:23:00;;;;;;;;;;;;;;;9.87;67.00;98542.13;5015801;28;20045;-78
2022/05/29 00:25:25;;;;;;;2.35;1.40;;;;;;;9.74;67.41;98535.44;5031989;28;19944;-79
2022/05/29 00:27:51;;;;;;;;;;;;;;;9.84;68.36;98530.06;5033616;28;20037;-79
2022/05/29 00:30:16;;;;;;;2.80;1.23;;;;;;;9.79;69.01;98538.81;5031538;28;19924;-79
2022/05/29 00:32:42;;;;;;;;;;;;;;;9.92;69.33;98529.91;5032184;28;20048;-79
2022/05/29 00:35:08;;;;;;;3.38;1.38;;;;;;;9.66;67.75;98531.25;5020666;28;19956;-79
2022/05/29 00:37:35;;;;;;;;;;;;;;;9.70;68.47;98541.56;5028737;28;20099;-78
2022/05/29 00:40:01;;;;;;;2.05;1.15;;;;;;;9.51;68.38;98531.53;5031337;28;19978;-79
2022/05/29 00:42:26;;;;;;;;;;;;;;;9.54;69.20;98546.19;5032367;28;20041;-79
2022/05/29 00:44:52;;;;;;;2.70;1.13;;;;;;;9.37;69.80;98544.72;5032697;28;20339;-79
2022/05/29 00:47:18;;;;;;;;;;;;;;;9.38;70.31;98541.25;5031664;28;20041;-79
2022/05/29 00:49:45;;;;;;;3.58;1.42;;;;;;;9.27;70.27;98540.59;5031916;28;19975;-79
2022/05/29 00:52:13;;;;;;;2.38;1.20;;;;;;;9.22;70.35;98546.75;5014094;28;20041;-79
2022/05/29 00:54:44;;;;;;;2.33;1.10;;;;;;;9.08;70.22;98542.63;5029398;28;20033;-79
2022/05/29 00:57:14;;;;;;;1.88;1.10;;;;;;;9.07;70.61;98550.41;5004947;28;20041;-79
2022/05/29 00:59:41;;;;;;;2.38;1.20;;;;;;;9.04;70.94;98550.47;5030904;28;20056;-79
2022/05/29 01:02:07;;;;;;;4.07;1.23;;;;;;;8.97;71.25;98543.66;5015011;28;20033;-79
2022/05/29 01:04:36;;;;;;;;;;;;;;;9.05;71.82;98547.84;5031187;28;20037;-79
2022/05/29 01:07:03;;;;;;;4.32;1.10;;;;;;;8.96;71.27;98534.22;5032506;28;19917;-80
2022/05/29 01:09:29;;;;;;;1.45;0.98;;;;;;;8.91;71.31;98542.03;5015247;28;20456;-79
2022/05/29 01:12:04;;;;;;;;;;;;;;;9.08;71.78;98542.63;5031260;28;20047;-79
2022/05/29 01:14:41;;;;;;;2.67;1.10;;;;;;;9.04;71.63;98551.31;5014122;28;19936;-78
2022/05/29 01:17:35;;;;;;;5.20;1.13;;;;;;;9.07;71.68;98545.22;5001185;28;20042;-79
2022/05/29 01:20:05;;;;;;;2.35;1.08;;;;;;;9.03;71.86;98554.78;5001643;28;20103;-80
2022/05/29 01:22:41;;;;;;;1.50;1.00;;;;;;;9.03;72.00;98557.38;5045784;28;20038;-80
2022/05/29 01:25:45;;;;;;;2.72;1.05;;;;;;;9.05;72.06;98558.19;5047151;28;20042;-81
2022/05/29 01:28:30;;;;;;;2.33;1.00;;;;;;;9.08;72.34;98567.66;5008343;28;20049;-80
2022/05/29 01:31:06;;;;;;;2.25;1.17;;;;;;;8.96;72.42;98567.84;5029368;28;20132;-79
2022/05/29 01:33:45;;;;;;;3.92;1.02;;;;;;;8.87;72.78;98574.00;5020429;28;20034;-79
2022/05/29 01:36:23;;;;;;;1.85;1.00;;;;;;;8.83;73.52;98577.50;5027589;28;20052;-78
2022/05/29 01:38:54;;;;;;;2.60;0.95;;;;;;;8.80;73.77;98580.16;5031060;28;20038;-79
2022/05/29 01:41:49;;;;;;;2.05;1.00;;;;;;;8.91;73.95;98586.00;5027906;28;20037;-79
2022/05/29 01:44:37;;;;;;;2.47;0.90;;;;;;;8.96;73.43;98576.44;5027641;28;20053;-79
2022/05/29 01:47:22;;;;;;;1.35;0.90;;;;;;;9.02;73.45;98588.44;5029152;28;20094;-79
2022/05/29 01:49:53;;;;;;;2.00;1.10;;;;;;;9.05;73.32;98591.81;5024722;28;20095;-78
2022/05/29 01:52:31;;;;;;;2.50;1.15;;;;;;;8.98;72.88;98603.16;5012138;28;20038;-79
2022/05/29 01:55:02;;;;;;;3.22;1.05;;;;;;;9.04;73.05;98597.88;5042349;28;20033;-79
2022/05/29 01:57:31;;;;;;;2.25;1.00;;;;;;;9.08;73.00;98593.53;5033547;28;20412;-79
2022/05/29 02:00:08;;;;;;;3.40;1.48;;;;;;;8.99;73.46;98594.50;5031987;28;20033;-79
2022/05/29 02:02:39;;;;;;;4.82;1.50;;;;;;;9.01;73.27;98597.06;5016710;28;20076;-79
2022/05/29 02:05:11;;;;;;;2.85;1.25;;;;;;;9.03;73.67;98603.09;5018861;28;20030;-79
2022/05/29 02:07:47;;;;;;;3.90;1.40;;;;;;;9.07;73.79;98592.69;5004734;28;20131;-79
2022/05/29 02:10:24;;;;;;;3.10;1.65;;;;;;;9.01;73.58;98602.25;5041679;28;20036;-78
2022/05/29 02:13:19;;;;;;;;;;;;;;;9.13;74.19;98617.59;5033744;28;20077;-79
2022/05/29 02:15:51;;;;;;;4.75;1.90;;;;;;;9.03;74.50;98614.28;5006826;28;20063;-79
2022/05/29 02:18:50;;;;;;;5.07;1.73;;;;;;;8.97;75.13;98622.13;5001065;28;20457;-79
2022/05/29 02:21:38;;;;;;;5.88;1.85;;;;;;;9.02;75.44;98628.06;5025905;28;20132;-80
2022/05/29 02:24:06;;;;;;;3.78;1.90;;;;;;;9.01;75.69;98630.69;5024843;28;20029;-79
2022/05/29 02:26:35;;;;;;;5.40;1.90;;;;;;;9.10;75.96;98644.34;5056468;28;20183;-79
2022/05/29 02:29:05;;;;;;;2.90;1.85;;;;;;;9.19;75.66;98642.50;5029016;28;20045;-79
2022/05/29 02:32:04;;;;;;;3.35;1.80;;;;;;;9.18;75.05;98638.22;5023208;28;20041;-79
2022/05/29 02:34:40;;;;;;;7.43;1.92;;;;;;;9.07;75.60;98640.94;5018272;28;20049;-79
2022/05/29 02:37:41;;;;;;;3.72;1.73;;;;;;;8.99;75.87;98642.81;5021187;28;20049;-79
2022/05/29 02:40:10;;;;;;;3.10;1.70;;;;;;;8.88;75.72;98642.94;5006043;28;20042;-79
2022/05/29 02:42:51;;;;;;;4.05;1.90;;;;;;;8.88;75.86;98655.88;5056547;28;20034;-80
2022/05/29 02:45:23;;;;;;;3.40;1.42;;;;;;;8.95;76.19;98659.25;5043829;28;20095;-79
2022/05/29 02:47:55;;;;;;;3.60;1.70;;;;;;;8.94;76.07;98658.38;5026244;28;20122;-79
2022/05/29 02:50:35;;;;;;;2.78;1.40;;;;;;;8.95;76.11;98657.50;5011829;28;20045;-79
2022/05/29 02:53:06;;;;;;;3.42;1.55;;;;;;;9.05;75.29;98671.16;5023710;28;20042;-79
2022/05/29 02:55:32;;;;;;;3.95;1.52;;;;;;;9.05;75.37;98666.84;5002093;28;20531;-79
2022/05/29 02:57:59;;;;;;;;;;;;;;;9.14;75.16;98673.63;5014094;28;20053;-79
2022/05/29 03:00:25;;;;;;;6.38;1.70;;;;;;;9.19;75.29;98670.97;5024129;28;19975;-79
2022/05/29 03:03:13;;;;;;;;;;;;;;;9.22;74.90;98678.69;5017809;28;20484;-79
2022/05/29 03:05:54;;;;;;;3.92;1.38;;;;;;;9.24;74.65;98682.09;5022614;28;20023;-78
2022/05/29 03:08:19;;;;;;;4.32;1.30;;;;;;;9.16;74.43;98685.69;5021562;28;20480;-78
2022/05/29 03:10:53;;;;;;;;;;;;;;;9.27;75.40;98682.06;5026114;28;20029;-79
2022/05/29 03:13:36;;;;;;;2.80;1.40;;;;;;;9.19;74.42;98686.50;5048083;28;19924;-79
2022/05/29 03:16:17;;;;;;;1.92;1.10;;;;;;;9.34;74.75;98691.44;5006617;28;20439;-78
2022/05/29 03:19:08;;;;;;;2.22;1.27;;;;;;;9.43;74.46;98699.06;5011238;28;20496;-78
2022/05/29 03:22:07;;;;;;;3.55;1.38;;;;;;;9.48;73.68;98696.41;5015575;28;20095;-79
2022/05/29 03:24:38;;;;;;;4.13;1.77;;;;;;;9.40;74.11;98688.78;5017030;28;20507;-78
2022/05/29 03:27:13;;;;;;;2.65;1.30;;;;;;;9.51;74.38;98696.38;5058469;28;20080;-79
2022/05/29 03:29:44;;;;;;;6.45;1.40;;;;;;;9.48;73.78;98699.84;5031370;28;20143;-78
2022/05/29 03:32:10;;;;;;;5.80;1.40;;;;;;;9.43;73.76;98699.06;5030287;28;20545;-79
2022/05/29 03:34:36;;;;;;;;;;;;;;;9.40;74.10;98700.00;5029598;28;20045;-80
2022/05/29 03:37:01;;;;;;;2.03;1.35;;;;;;;9.48;73.93;98702.44;5013183;28;19921;-78
2022/05/29 03:39:27;;;;;;;;;;;;;;;9.59;73.81;98712.66;5010629;28;20485;-78
2022/05/29 03:41:53;;;;;;;3.28;1.58;;;;;;;9.56;73.82;98716.13;5022091;28;20392;-78
2022/05/29 03:44:20;;;;;;;5.95;2.00;;;;;;;9.49;73.71;98709.34;5056390;28;20030;-79
2022/05/29 03:46:46;;;;;;;3.63;1.63;;;;;;;9.48;74.37;98709.34;5028901;28;20054;-79
2022/05/29 03:49:12;;;;;;;;;;;;;;;9.63;75.03;98722.94;5024053;28;20128;-79
2022/05/29 03:51:38;;;;;;;3.22;1.60;;;;;;;9.69;73.85;98727.16;5028921;28;19921;-78
2022/05/29 03:54:03;;;;;;;;;;;;;;;9.83;73.92;98729.53;4999146;28;20038;-79
2022/05/29 03:56:29;;;;;;;2.70;1.40;;;;;;;9.92;73.55;98739.75;5024865;28;20427;-79
2022/05/29 03:58:55;;;;;;;;;;;;;;;10.06;73.13;98732.59;5030428;28;20033;-79
2022/05/29 04:01:21;;;;;;;3.63;1.10;;;;;;;9.81;72.86;98739.94;5041398;28;19924;-79
2022/05/29 04:03:46;;;;;;;;;;;;;;;9.83;72.29;98743.34;5029979;28;20032;-80
2022/05/29 04:06:12;;;;;;;3.13;1.30;;;;;;;9.83;72.53;98742.50;5026795;28;19921;-78
2022/05/29 04:14:06;;;;;;;2.58;0.98;;;;;;;9.96;71.77;98751.78;5018468;28;20037;-79
2022/05/29 04:16:32;;;;;;;;;;;;;;;9.91;71.63;98748.41;5024252;28;20040;-78
2022/05/29 04:18:58;;;;;;;3.67;1.20;;;;;;;10.02;71.48;98746.50;5022365;28;19923;-80
2022/05/29 04:21:23;;;;;;;;;;;;;;;10.06;71.17;98742.97;5013049;28;20036;-79
2022/05/29 04:23:49;;;;;;;3.47;1.20;;;;;;;9.95;70.77;98734.53;5011848;28;19960;-78
2022/05/29 04:26:15;;;;;;;1.98;1.02;;;;;;;9.98;71.39;98747.41;5040449;28;20097;-79
2022/05/29 04:28:41;;;;;;;;;;;;;;;10.00;71.35;98748.28;5018130;28;20045;-78
2022/05/29 04:31:06;;;;;;;3.53;1.20;;;;;;;9.94;70.99;98748.34;5026732;28;20442;-79
2022/05/29 04:33:32;;;;;;;;;;;;;;;10.03;70.65;98743.00;5029933;28;20042;-79
2022/05/29 04:35:57;;;;;;;4.75;1.20;;;;;;;10.03;69.97;98752.53;5024849;28;19992;-79
2022/05/29 04:38:23;;;;;;;;;;;;;;;9.98;70.42;98757.78;5020728;28;20045;-78
2022/05/29 04:40:49;;;;;;;2.92;1.10;;;;;;;10.04;69.96;98746.50;5019982;28;20031;-79
2022/05/29 04:43:14;;;;;;;;;;;;;;;9.98;69.89;98754.34;5015315;28;20040;-80
2022/05/29 04:45:43;;;;;;;2.75;0.98;;;;;;;10.10;69.54;98765.38;5026421;28;19917;-80
2022/05/29 04:48:10;;;;;;;1.80;1.02;;;;;;;10.24;69.12;98761.69;5022972;28;20137;-79
2022/05/29 04:50:36;;;;;;;2.35;1.00;;;;;;;10.30;69.48;98762.47;5028178;28;20052;-79
2022/05/29 04:53:01;;;;;;;;;;;;;;;10.38;69.63;98773.56;5013044;28;20061;-79
2022/05/29 04:55:27;;;;;;;1.52;0.90;;;;;;;10.34;68.98;98763.25;5000851;28;19948;-81
2022/05/29 04:57:52;;;;;;;;;;;;;;;10.41;68.68;98765.75;4995274;28;20089;-78
2022/05/29 05:00:18;;;;;;;1.30;1.00;;;;;;;10.55;68.31;98762.91;4997242;28;20388;-78
2022/05/29 05:02:44;;;;;;;;;;;;;;;10.67;67.97;98766.97;4979167;28;20050;-79
2022/05/29 05:05:09;;;;;;;1.75;0.98;;;;;;;10.52;66.90;98765.53;4992005;28;19920;-79
2022/05/29 05:07:35;;;;;;;;;;;;;;;10.68;67.78;98769.56;4997804;28;20045;-79
2022/05/29 05:10:06;;;;;;;3.08;1.00;;;;;;;10.63;66.57;98768.81;5002270;28;19918;-80
2022/05/29 05:12:31;;;;;;;3.42;1.15;;;;;;;10.57;67.65;98763.72;5006913;28;20120;-81
2022/05/29 05:14:57;;;;;;;;;;;;;;;10.67;67.95;98777.34;5005771;28;20035;-80
2022/05/29 05:17:22;;;;;;;1.80;1.00;;;;;;;10.74;67.47;98772.94;5006451;28;19917;-80
2022/05/29 05:19:48;;;;;;;;;;;;;;;10.68;66.20;98781.69;5010019;28;20033;-80
2022/05/29 05:22:14;;;;;;;1.25;0.88;;;;;;;10.68;66.55;98768.72;5001124;28;20403;-80
2022/05/29 05:24:40;;;;;;;;;;;;;;;10.73;66.62;98779.00;4993063;28;20046;-81
2022/05/29 05:27:06;;;;;;;1.65;1.10;;;;;;;10.72;66.89;98792.84;4992659;28;19921;-81
2022/05/29 05:29:32;;;;;;;3.08;1.20;;;;;;;10.73;66.61;98782.44;5030153;28;20022;-80
2022/05/29 05:31:58;;;;;;;;;;;;;;;10.91;67.04;98781.25;5000921;28;20065;-80
2022/05/29 05:34:23;;;;;;;2.15;1.23;;;;;;;10.96;66.46;98779.41;5015596;28;19917;-81
2022/05/29 05:36:49;;;;;;;;;;;;;;;10.84;65.51;98785.69;5021136;28;20473;-82
2022/05/29 05:39:14;;;;;;;1.95;1.10;;;;;;;10.93;65.78;98779.47;5022878;28;19914;-82
2022/05/29 05:41:40;;;;;;;;;;;;;;;11.13;64.46;98805.88;5043735;28;20041;-82
2022/05/29 05:44:06;;;;;;;2.42;1.20;;;;;;;11.08;64.31;98794.72;5026051;28;19967;-81
2022/05/29 05:46:32;;;;;;;;;;;;;;;11.20;63.77;98801.41;5024609;28;20057;-80
2022/05/29 05:48:57;;;;;;;3.08;1.20;;;;;;;11.21;63.20;98805.72;5010885;28;20000;-80
2022/05/29 05:51:23;;;;;;;;;;;;;;;11.08;63.64;98799.91;5012928;28;20120;-81
2022/05/29 05:53:48;;;;;;;4.65;1.20;;;;;;;11.11;64.69;98799.84;5026082;28;19913;-80
2022/05/29 05:56:15;;;;;;;;;;;;;;;11.29;64.55;98810.75;5022689;28;20092;-81
2022/05/29 05:58:41;;;;;;;2.13;1.08;;;;;;;11.36;64.23;98795.03;5006766;28;20444;-83
2022/05/29 06:01:09;;;;;;;;;;;;;;;11.49;64.31;98813.78;5008019;28;20081;-81
2022/05/29 06:03:35;;;;;;;1.65;1.08;;;;;;;11.52;62.25;98810.28;4995293;28;20020;-80
2022/05/29 06:06:00;;;;;;;2.25;1.20;;;;;;;11.35;63.35;98798.50;4999683;28;20083;-81
2022/05/29 06:08:26;;;;;;;;;;;;;;;11.44;63.65;98807.84;5024698;28;20476;-81
2022/05/29 06:10:52;;;;;;;3.60;1.30;;;;;;;11.57;62.87;98808.44;4996856;28;19917;-82
2022/05/29 06:13:17;;;;;;;;;;;;;;;11.62;62.43;98815.22;5012125;28;20060;-80
2022/05/29 06:15:44;;;;;;;3.28;1.05;;;;;;;11.61;62.04;98810.94;5012770;28;19928;-81
2022/05/29 06:18:14;;;;;;;3.08;1.23;;;;;;;11.71;60.82;98811.59;5027515;28;20508;-85
2022/05/29 06:20:41;;;;;;;4.38;1.00;;;;;;;11.82;60.91;98814.84;5027212;28;20550;-82
2022/05/29 06:23:07;;;;;;;1.55;1.00;;;;;;;11.97;59.83;98808.44;5045806;28;20064;-82
2022/05/29 06:25:33;;;;;;;4.25;1.20;;;;;;;12.08;59.25;98811.63;5000375;28;20038;-81
2022/05/29 06:28:00;;;;;;;;;;;;;;;12.31;59.37;98825.81;5003419;28;20397;-81
2022/05/29 06:30:28;;;;;;;3.88;0.98;;;;;;;12.49;58.48;98798.50;5020781;28;20422;-82
2022/05/29 06:32:54;;;;;;;3.05;1.00;;;;;;;12.78;57.87;98824.59;4988329;28;20486;-81
2022/05/29 06:35:20;;;;;;;2.25;0.98;;;;;;;12.91;56.27;98817.31;5034143;28;20051;-81
2022/05/29 06:37:45;;;;;;;;;;;;;;;13.08;55.37;98838.56;5005641;28;20053;-81
2022/05/29 06:40:12;;;;;;;3.13;1.15;;;;;;;13.11;55.45;98848.91;5014708;28;19968;-81
2022/05/29 06:42:38;;;;;;;4.47;1.25;;;;;;;13.27;55.43;98831.09;5002894;28;20037;-81
2022/05/29 06:45:04;;;;;;;2.28;1.20;;;;;;;13.30;54.78;98822.38;5016830;28;20041;-82
2022/05/29 06:47:30;;;;;;;3.60;0.90;;;;;;;13.17;54.48;98833.09;5015957;28;20041;-80
2022/05/29 06:49:56;;;;;;;3.92;1.30;;;;;;;13.17;54.51;98827.88;5034348;28;20040;-81
2022/05/29 06:52:22;;;;;;;;;;;;;;;13.30;53.73;98838.00;5002086;28;20038;-81
2022/05/29 06:54:47;;;;;;;3.17;1.13;;;;;;;13.39;53.49;98840.34;5032729;28;19943;-81
2022/05/29 06:57:13;;;;;;;;;;;;;;;13.62;53.42;98856.16;5025442;28;20038;-81
2022/05/29 07:08:03;;;;;;;2.47;1.10;;;;;;;14.31;49.53;98846.22;5026583;28;20049;-82
2022/05/29 07:10:29;;;;;;;1.73;0.82;;;;;;;14.23;49.76;98851.66;5022937;28;20113;-81
2022/05/29 07:12:56;;;;;;;3.22;0.90;;;;;;;14.22;49.91;98859.56;5022453;28;20046;-81
2022/05/29 07:15:22;;;;;;;3.45;1.05;;;;;;;14.24;49.27;98842.94;5030975;28;20113;-82
2022/05/29 07:17:47;;;;;;;;;;;;;;;14.44;49.56;98864.94;4979454;28;20139;-81
2022/05/29 07:20:13;;;;;;;2.10;0.90;;;;;;;14.60;48.66;98863.56;5030505;28;20324;-82
2022/05/29 07:22:40;;;;;;;;;;;;;;;14.62;49.09;98866.97;5029101;28;20167;-81
2022/05/29 07:25:07;;;;;;;4.90;1.10;;;;;;;14.64;49.35;98856.47;5020842;28;19920;-82
2022/05/29 07:27:33;;;;;;;4.38;1.05;;;;;;;14.90;49.11;98861.69;5031771;28;20076;-82
2022/05/29 07:29:59;;;;;;;;;;;;;;;15.11;47.60;98886.19;5025253;28;20041;-81
2022/05/29 07:32:25;;;;;;;3.45;0.98;;;;;;;15.21;46.83;98882.38;5026342;28;20013;-80
2022/05/29 07:34:51;;;;;;;1.58;0.70;;;;;;;15.27;47.63;98881.28;5027660;28;20098;-80
2022/05/29 07:37:17;;;;;;;3.70;0.90;;;;;;;15.43;47.09;98876.34;4997638;28;20151;-81
2022/05/29 07:39:45;;;;;;;4.32;1.05;;;;;;;15.43;46.09;98863.28;5015207;28;20120;-82
2022/05/29 07:44:55;;;;;;;1.77;0.80;;;;;;;15.31;45.23;98877.66;4999949;28;20033;-80
2022/05/29 07:47:21;;;;;;;2.42;0.90;;;;;;;15.31;45.95;98874.19;5009443;28;20042;-82
2022/05/29 07:49:47;;;;;;;2.90;1.05;;;;;;;15.45;45.14;98887.63;5013601;28;20038;-81
2022/05/29 07:52:13;;;;;;;2.20;1.00;;;;;;;15.66;45.17;98871.16;5014300;28;20385;-81
2022/05/29 07:54:38;;;;;;;2.17;1.00;;;;;;;16.12;44.27;98892.09;4987378;28;20540;-81
2022/05/29 07:57:04;;;;;;;1.90;0.80;;;;;;;16.50;42.15;98903.69;5020758;28;20041;-82
2022/05/29 07:59:30;;;;;;;1.75;0.80;;;;;;;16.58;42.02;98879.78;5018492;28;20050;-80
2022/05/29 08:01:56;;;;;;;2.42;0.80;;;;;;;16.57;42.40;98873.69;4997235;28;20092;-82
2022/05/29 08:04:21;;;;;;;4.05;1.00;;;;;;;16.83;42.64;98869.19;5013619;28;20114;-81
2022/05/29 08:06:47;;;;;;;4.00;1.02;;;;;;;17.06;42.07;98876.06;5015581;28;20125;-81
2022/05/29 08:09:13;;;;;;;2.45;0.88;;;;;;;17.22;40.68;98867.47;5046855;28;20038;-80
2022/05/29 08:11:38;;;;;;;3.00;0.90;;;;;;;17.37;40.86;98886.94;5030884;28;20045;-81
2022/05/29 08:14:04;;;;;;;3.10;0.90;;;;;;;17.22;38.73;98892.81;5010461;28;20042;-81
2022/05/29 08:16:31;;;;;;;2.85;0.90;;;;;;;17.02;40.14;98883.22;5011607;28;20036;-80
2022/05/29 08:18:58;;;;;;;2.88;0.98;;;;;;;17.19;39.75;98872.84;5030012;28;20057;-81
2022/05/29 08:21:24;;;;;;;2.20;0.80;;;;;;;17.53;39.75;98892.34;4996956;28;20037;-81
2022/05/29 08:32:04;;;;;;;3.17;0.80;;;;;;;17.12;39.56;98897.63;5001690;28;20042;-82
2022/05/29 08:34:29;;;;;;;1.33;0.73;;;;;;;17.12;39.91;98892.38;5024558;28;20050;-83
2022/05/29 08:36:55;;;;;;;4.25;0.90;;;;;;;17.21;39.17;98894.59;5046244;28;20053;-81
2022/05/29 08:39:22;;;;;;;1.55;0.70;;;;;;;17.59;38.88;98891.19;5012536;28;20385;-82
2022/05/29 08:41:51;;;;;;;2.22;0.90;;;;;;;17.65;37.66;98873.44;5014371;28;20057;-84
2022/05/29 08:44:40;;;;;;;2.13;0.90;;;;;;;17.73;38.03;98896.66;5025812;28;20038;-81
2022/05/29 08:47:06;;;;;;;3.17;0.80;;;;;;;17.79;37.91;98885.94;4986442;28;20494;-83
2022/05/29 08:49:40;;;;;;;4.55;0.98;;;;;;;18.03;37.97;98881.34;4991790;28;20035;-83
2022/05/29 08:52:08;;;;;;;2.45;1.20;;;;;;;18.49;37.39;98893.13;5004325;28;20084;-80
2022/05/29 08:54:46;;;;;;;5.38;1.05;;;;;;;18.91;35.91;98901.59;5009302;28;20120;-81
2022/05/29 08:57:37;;;;;;;1.52;0.70;;;;;;;19.09;33.99;98894.56;5005084;28;20038;-80
2022/05/29 09:00:20;;;;;;;2.50;0.75;;;;;;;19.16;33.59;98895.97;5001481;28;20133;-81
2022/05/29 09:03:01;;;;;;;5.88;1.63;;;;;;;19.11;34.25;98890.09;5029309;28;20052;-81
2022/05/29 09:05:39;;;;;;;3.30;1.00;;;;;;;18.87;34.00;98889.53;5011556;28;20045;-81
2022/05/29 09:08:27;;;;;;;1.75;0.82;;;;;;;18.26;35.76;98901.25;4996626;28;20041;-81
2022/05/29 09:10:54;;;;;;;1.40;0.80;;;;;;;17.53;37.30;98900.19;5030833;28;20113;-81
2022/05/29 09:13:28;;;;;;;2.03;0.85;;;;;;;16.98;38.27;98919.16;5014640;28;20029;-81
2022/05/29 09:15:57;;;;;;;5.03;1.20;;;;;;;16.66;39.68;98919.63;4997653;28;20659;-81
2022/05/29 09:18:30;;;;;;;2.30;0.90;;;;;;;16.23;40.39;98911.72;5013298;28;20045;-82
2022/05/29 09:20:56;;;;;;;1.90;1.00;;;;;;;16.59;40.43;98921.66;5028924;28;20034;-81
2022/05/29 09:23:25;;;;;;;1.70;0.90;;;;;;;17.18;38.98;98907.84;5013773;28;20036;-82
2022/05/29 09:25:51;;;;;;;2.15;0.82;;;;;;;17.99;37.57;98901.63;5027539;28;20377;-80
2022/05/29 09:28:34;;;;;;;3.65;0.80;;;;;;;18.87;35.32;98908.78;5026027;28;20049;-83
2022/05/29 09:31:15;;;;;;;1.27;0.60;;;;;;;19.62;33.58;98907.59;5040236;28;20053;-81
2022/05/29 09:33:41;;;;;;;1.27;0.73;;;;;;;19.65;33.67;98909.22;4982362;28;20100;-81
2022/05/29 09:36:19;;;;;;;1.77;0.60;;;;;;;19.65;34.84;98920.56;4979575;28;20045;-81
2022/05/29 09:38:48;;;;;;;1.75;0.70;;;;;;;19.77;34.14;98911.19;5009780;28;20045;-82
2022/05/29 09:41:52;;;;;;;1.70;0.70;;;;;;;19.99;34.35;98924.91;4979718;28;20044;-80
2022/05/29 09:44:19;;;;;;;2.42;0.75;;;;;;;19.91;33.75;98927.09;4989897;28;20042;-81
2022/05/29 09:46:50;;;;;;;4.03;0.70;;;;;;;19.26;34.52;98924.34;5021456;28;20045;-81
2022/05/29 09:49:41;;;;;;;2.60;0.90;;;;;;;19.43;35.66;98941.03;4981812;28;20077;-83
2022/05/29 09:52:11;;;;;;;2.53;0.70;;;;;;;20.09;34.17;98941.03;5037747;28;20779;-82
2022/05/29 09:54:44;;;;;;;3.75;0.80;;;;;;;21.22;32.33;98918.81;5003583;28;20152;-82
2022/05/29 09:57:11;;;;;;;3.05;0.90;;;;;;;22.47;30.36;98930.50;5017226;28;20169;-80
2022/05/29 09:59:42;;;;;;;2.28;0.80;;;;;;;23.33;29.14;98912.47;5011753;28;20034;-80
2022/05/29 10:02:15;;;;;;;1.60;0.70;;;;;;;23.96;28.29;98902.78;5028312;28;20120;-81
2022/05/29 10:04:41;;;;;;;2.53;0.90;;;;;;;24.25;27.26;98901.56;5010574;28;20041;-81
2022/05/29 10:07:17;;;;;;;4.60;1.17;;;;;;;24.54;27.51;98922.47;5012259;28;20048;-82
2022/05/29 10:09:59;;;;;;;1.67;0.70;;;;;;;23.88;25.34;98931.66;4995633;28;20111;-81
2022/05/29 10:12:35;;;;;;;3.08;0.70;;;;;;;23.19;25.62;98907.25;5011979;28;20180;-81
2022/05/29 10:15:01;;;;;;;2.58;0.55;;;;;;;23.13;26.15;98920.88;5012093;28;20397;-83
2022/05/29 10:17:29;;;;;;;3.63;0.70;;;;;;;22.47;26.72;98931.34;4999009;28;20041;-81
2022/05/29 10:19:55;;;;;;;12.95;1.20;;;;;;;20.78;30.73;98930.16;5013760;28;20076;-81
2022/05/29 10:22:37;;;;;;;3.63;0.90;;;;;;;20.52;32.70;98933.41;5005175;28;20041;-81
2022/05/29 10:25:25;;;;;;;2.00;0.98;;;;;;;20.28;33.53;98944.34;5014401;28;20381;-81
2022/05/29 10:27:53;;;;;;;1.42;0.80;;;;;;;19.98;33.44;98912.69;5042984;28;20052;-81
2022/05/29 10:30:31;;;;;;;2.00;0.80;;;;;;;19.70;32.29;98938.75;5031887;28;20029;-80
2022/05/29 10:33:04;;;;;;;1.02;0.60;;;;;;;19.36;33.35;98931.75;5016139;28;20125;-81
2022/05/29 10:35:32;;;;;;;2.83;0.80;;;;;;;18.93;32.97;98926.06;5012655;28;20050;-82
2022/05/29 10:37:57;;;;;;;3.17;0.70;;;;;;;19.06;32.74;98942.91;5015434;28;20061;-82
2022/05/29 10:40:31;;;;;;;1.85;0.80;;;;;;;19.67;32.89;98923.16;5012095;28;20042;-82
2022/05/29 10:43:03;;;;;;;2.95;0.95;;;;;;;20.90;31.07;98925.13;5002182;28;20463;-82
2022/05/29 10:45:33;;;;;;;0.98;0.70;;;;;;;21.50;29.18;98940.94;4997058;28;20061;-79
2022/05/29 10:48:23;;;;;;;2.50;0.80;;;;;;;21.65;29.33;98953.19;4994485;28;20089;-79
2022/05/29 10:50:59;;;;;;;1.88;0.65;;;;;;;21.54;28.47;98938.00;5009773;28;20500;-85
2022/05/29 10:53:27;;;;;;;3.08;0.80;;;;;;;21.42;28.09;98945.81;5011902;28;20038;-81
2022/05/29 10:56:11;;;;;;;2.08;0.75;;;;;;;21.67;28.29;98945.16;5036171;28;20046;-80
2022/05/29 10:58:45;;;;;;;1.08;0.60;;;;;;;21.94;27.81;98953.19;5004472;28;20038;-84
2022/05/29 11:04:17;;;;;;;4.03;1.90;;;;;;;22.57;26.72;98950.94;5027725;28;20030;-81
2022/05/29 11:07:06;;;;;;;4.25;1.05;;;;;;;22.72;26.58;98941.16;5005498;28;20492;-80
2022/05/29 11:09:53;;;;;;;2.80;0.68;;;;;;;22.74;25.43;98970.16;5010714;28;20093;-80
2022/05/29 11:12:45;;;;;;;4.30;0.80;;;;;;;21.64;26.57;98955.94;5004738;28;20516;-81
2022/05/29 11:15:33;;;;;;;2.22;0.60;;;;;;;20.55;28.41;98957.81;5023379;28;20038;-82
2022/05/29 11:18:23;;;;;;;1.88;0.70;;;;;;;19.54;29.90;98975.50;4993018;28;20033;-82
2022/05/29 11:21:28;;;;;;;1.63;0.90;;;;;;;18.88;31.54;98973.59;5003435;28;20515;-81
2022/05/29 11:24:32;;;;;;;2.83;0.90;;;;;;;18.41;32.88;98994.19;5015543;28;20037;-80
2022/05/29 11:27:11;;;;;;;2.90;0.75;;;;;;;17.80;34.05;99016.19;4997263;28;20041;-80
2022/05/29 11:29:51;;;;;;;2.78;1.00;;;;;;;18.07;34.09;99024.63;5007370;28;20088;-81
2022/05/29 11:32:20;;;;;;;2.30;0.80;;;;;;;17.41;38.14;98988.13;5001047;28;20130;-81
2022/05/29 11:35:05;;;;;;;1.38;0.80;;;;;;;16.97;38.77;98997.84;5019688;28;20161;-80
2022/05/29 11:37:51;;;;;;;1.95;0.88;;;;;;;17.15;38.65;98986.59;5012815;28;20041;-80
2022/05/29 11:40:19;;;;;;;2.38;1.00;;;;;;;17.95;38.18;98963.03;5018660;28;20046;-81
2022/05/29 11:43:11;;;;;;;2.15;0.90;;;;;;;19.33;34.71;98981.88;5007979;28;20042;-81
2022/05/29 11:51:59;;;;;;;3.20;0.70;;;;;;;21.81;30.61;98948.69;4994434;28;20052;-80
2022/05/29 11:54:34;;;;;;;2.65;0.80;;;;;;;22.32;29.84;98966.69;4989679;28;20050;-81
2022/05/29 11:57:21;;;;;;;2.17;0.90;;;;;;;22.80;29.29;98957.38;5032291;28;20436;-81
2022/05/29 12:00:07;;;;;;;2.00;0.80;;;;;;;23.34;27.57;98970.56;5011475;28;20045;-81
2022/05/29 12:02:47;;;;;;;2.90;0.90;;;;;;;24.09;27.58;98952.16;5011701;28;20041;-82
2022/05/29 12:05:26;;;;;;;2.53;0.70;;;;;;;24.76;25.69;98959.72;5022734;28;20042;-81
2022/05/29 12:08:15;;;;;;;1.10;0.70;;;;;;;25.03;24.81;98963.94;5013843;28;20042;-82
2022/05/29 12:10:54;;;;;;;2.15;0.70;;;;;;;25.05;24.39;98959.34;5012904;28;20050;-84
2022/05/29 12:13:22;;;;;;;1.50;0.80;;;;;;;24.65;24.79;98943.78;5010666;28;20493;-81
2022/05/29 12:15:51;;;;;;;0.85;0.70;;;;;;;25.10;25.00;98942.16;4979866;28;20109;-81
2022/05/29 12:18:17;;;;;;;2.38;0.82;;;;;;;25.37;24.14;98962.28;4991952;28;20042;-84
2022/05/29 12:20:47;;;;;;;1.45;0.70;;;;;;;25.35;24.05;98965.06;5006729;28;20041;-84
2022/05/29 12:23:25;;;;;;;3.03;0.70;;;;;;;25.03;24.16;98963.94;5016756;28;20121;-85
2022/05/29 12:26:10;;;;;;;3.40;0.70;;;;;;;23.62;25.66;98971.34;5015965;28;20056;-85
2022/05/29 12:28:47;;;;;;;1.23;0.52;;;;;;;22.16;27.77;98960.66;5017274;28;20041;-84
2022/05/29 12:31:18;;;;;;;2.92;0.70;;;;;;;21.09;29.44;98973.22;5009552;28;20049;-85
2022/05/29 12:33:44;;;;;;;0.68;0.50;;;;;;;20.19;31.43;98979.09;5007265;28;20509;-84
2022/05/29 12:36:14;;;;;;;2.83;0.90;;;;;;;19.75;32.49;98987.59;5008964;28;20038;-83
2022/05/29 12:39:22;;;;;;;2.65;0.70;;;;;;;19.28;32.30;99011.88;5037294;28;20050;-83
2022/05/29 12:41:57;;;;;;;1.50;0.80;;;;;;;18.43;33.57;99019.47;5026355;28;20054;-83
2022/05/29 12:45:19;;;;;;;3.28;0.90;;;;;;;17.90;35.38;99007.00;5008211;28;20058;-84